Time;durP1;ratioP1;P1;durP2;ratioP2;P2;SDS_P1;SDS_P2;PMS_P1;PMS_P2;Temp;Humidity;BMP_temperature;BMP_pressure;BME280_temperature;BME280_humidity;BME280_pressure;Samples;Min_cycle;Max_cycle;Signal;HPM_P1;HPM_P2
2022/02/24 00:00:43;;;;;;;76.77;46.83;;;;;;;0.24;73.97;101340.91;1744983;82;20846;-82
2022/02/24 00:03:10;;;;;;;77.27;45.15;;;;;;;0.13;73.91;101345.27;1745419;81;20999;-83
2022/02/24 00:05:37;;;;;;;75.60;41.70;;;;;;;0.05;74.00;101344.47;1744939;82;20873;-82
2022/02/24 00:08:04;;;;;;;67.08;39.35;;;;;;;-0.01;74.28;101347.92;1744820;82;20893;-80
2022/02/24 00:10:33;;;;;;;70.32;38.63;;;;;;;-0.03;74.49;101341.47;1744959;80;21111;-82
2022/02/24 00:13:00;;;;;;;59.60;34.33;;;;;;;-0.02;74.64;101341.06;1744455;82;21433;-83
2022/02/24 00:15:27;;;;;;;56.30;35.10;;;;;;;-0.05;74.72;101339.33;1744796;80;20889;-82
2022/02/24 00:17:53;;;;;;;49.93;31.62;;;;;;;-0.05;75.18;101348.36;1744545;82;20909;-82
2022/02/24 00:20:20;;;;;;;63.52;33.80;;;;;;;-0.03;75.41;101349.65;1744638;82;21398;-81
2022/02/24 00:22:47;;;;;;;60.92;30.25;;;;;;;-0.02;75.52;101351.38;1744498;82;21957;-82
2022/02/24 00:25:14;;;;;;;52.13;30.08;;;;;;;-0.03;75.69;101347.07;1744446;81;20881;-81
2022/02/24 00:27:41;;;;;;;62.08;31.62;;;;;;;0.00;75.81;101350.94;1744574;80;20936;-81
2022/02/24 00:30:09;;;;;;;56.20;33.28;;;;;;;0.03;75.94;101347.48;1744464;82;20972;-79
2022/02/24 00:32:36;;;;;;;66.07;36.10;;;;;;;0.07;76.06;101351.33;1744934;82;20842;-80
2022/02/24 00:35:04;;;;;;;53.52;33.88;;;;;;;0.09;76.13;101348.72;1744623;82;21115;-79
2022/02/24 00:37:33;;;;;;;61.45;33.78;;;;;;;0.10;75.96;101347.44;1744476;82;20968;-80
2022/02/24 00:39:59;;;;;;;58.42;32.65;;;;;;;0.05;75.84;101347.91;1744596;82;20968;-79
2022/02/24 00:42:26;;;;;;;65.85;35.25;;;;;;;0.01;75.88;101344.06;1744451;82;20893;-80
2022/02/24 00:44:53;;;;;;;66.70;36.98;;;;;;;-0.04;76.11;101350.09;1744702;81;20888;-77
2022/02/24 00:47:20;;;;;;;73.95;39.03;;;;;;;-0.01;76.55;101346.19;1744843;80;21486;-76
2022/02/24 00:49:48;;;;;;;68.80;41.00;;;;;;;0.07;76.64;101344.89;1744403;82;20892;-77
2022/02/24 00:52:15;;;;;;;74.97;39.88;;;;;;;0.11;76.32;101346.59;1744446;81;21004;-77
2022/02/24 00:54:47;;;;;;;74.65;39.50;;;;;;;0.15;75.88;101346.13;1744507;81;20940;-78
2022/02/24 00:57:15;;;;;;;69.27;39.13;;;;;;;0.15;75.47;101353.42;1744599;82;20960;-77
2022/02/24 00:59:42;;;;;;;69.58;37.85;;;;;;;0.14;75.29;101354.73;1744407;80;21134;-81
2022/02/24 01:02:09;;;;;;;68.25;38.33;;;;;;;0.11;75.18;101354.33;1744388;82;20964;-80
2022/02/24 01:04:37;;;;;;;70.50;37.95;;;;;;;0.09;75.25;101357.34;1744638;80;20889;-82
2022/02/24 01:07:04;;;;;;;69.70;38.75;;;;;;;0.08;75.30;101356.05;1744595;81;20901;-81
2022/02/24 01:09:32;;;;;;;75.25;40.85;;;;;;;0.05;75.28;101360.80;1744670;81;20976;-83
2022/02/24 01:11:59;;;;;;;72.95;39.40;;;;;;;0.01;75.37;101355.22;1744975;81;21150;-79
2022/02/24 01:14:26;;;;;;;74.10;41.40;;;;;;;-0.01;75.37;101356.95;1744367;81;20932;-73
2022/02/24 01:16:54;;;;;;;70.10;40.35;;;;;;;-0.03;75.30;101369.83;1744364;81;21339;-74
2022/02/24 01:19:21;;;;;;;73.33;39.42;;;;;;;-0.09;75.12;101358.28;1744490;82;20932;-73
2022/02/24 01:21:48;;;;;;;77.30;42.70;;;;;;;-0.09;75.05;101365.13;1744868;82;20877;-73
2022/02/24 01:24:16;;;;;;;72.17;38.53;;;;;;;-0.11;74.98;101363.88;1744544;81;20889;-73
2022/02/24 01:26:43;;;;;;;70.65;40.15;;;;;;;-0.15;74.81;101368.61;1744737;81;20881;-74
2022/02/24 01:29:10;;;;;;;65.42;37.58;;;;;;;-0.22;74.73;101363.91;1744552;82;20901;-72
2022/02/24 01:31:37;;;;;;;73.17;41.40;;;;;;;-0.27;74.79;101369.52;1744410;82;20944;-74
2022/02/24 01:34:04;;;;;;;67.95;35.78;;;;;;;-0.27;74.87;101368.64;1744469;80;20936;-73
2022/02/24 01:36:31;;;;;;;60.85;34.58;;;;;;;-0.29;75.02;101369.07;1744574;82;21142;-73
2022/02/24 01:38:58;;;;;;;63.87;34.27;;;;;;;-0.29;75.24;101367.78;1744402;82;20991;-73
2022/02/24 01:41:25;;;;;;;79.50;42.43;;;;;;;-0.31;75.47;101365.64;1744661;80;21362;-74
2022/02/24 01:43:52;;;;;;;114.03;58.48;;;;;;;-0.33;75.64;101372.55;1744621;81;20940;-75
2022/02/24 01:46:18;;;;;;;125.25;58.42;;;;;;;-0.35;75.70;101372.98;1744434;82;20964;-73
2022/02/24 01:48:46;;;;;;;111.72;53.45;;;;;;;-0.37;75.82;101375.98;1744638;82;21148;-74
2022/02/24 01:51:13;;;;;;;113.92;58.10;;;;;;;-0.35;75.91;101379.42;1744530;82;20857;-73
2022/02/24 01:53:40;;;;;;;119.42;57.93;;;;;;;-0.34;76.03;101378.55;1744798;82;20994;-74
2022/02/24 01:56:07;;;;;;;119.67;56.18;;;;;;;-0.32;76.00;101384.55;1744665;82;20837;-76
2022/02/24 01:58:35;;;;;;;98.82;53.08;;;;;;;-0.31;75.90;101386.25;1744525;82;20853;-74
2022/02/24 02:01:03;;;;;;;100.22;49.40;;;;;;;-0.28;75.72;101392.70;1746241;81;21098;-75
2022/02/24 02:03:31;;;;;;;97.12;48.38;;;;;;;-0.30;75.55;101392.70;1757977;80;20931;-75
2022/02/24 02:05:59;;;;;;;97.97;47.03;;;;;;;-0.31;75.32;101395.28;1758087;80;21537;-73
2022/02/24 02:08:27;;;;;;;93.67;44.58;;;;;;;-0.35;75.07;101394.45;1758701;81;21022;-74
2022/02/24 02:10:54;;;;;;;89.07;43.80;;;;;;;-0.39;75.02;101398.33;1757954;81;20936;-75
2022/02/24 02:13:21;;;;;;;89.75;43.50;;;;;;;-0.44;75.02;101400.47;1757876;80;21190;-73
2022/02/24 02:15:47;;;;;;;94.30;45.92;;;;;;;-0.45;74.99;101402.61;1757931;81;20964;-75
2022/02/24 02:18:14;;;;;;;80.60;39.98;;;;;;;-0.47;74.94;101412.48;1757985;81;20873;-73
2022/02/24 02:20:41;;;;;;;77.78;41.02;;;;;;;-0.51;74.88;101407.80;1757939;81;21425;-75
2022/02/24 02:23:08;;;;;;;78.50;41.05;;;;;;;-0.54;75.06;101409.50;1758097;80;20912;-75
2022/02/24 02:25:36;;;;;;;95.45;48.92;;;;;;;-0.57;75.21;101417.25;1757876;81;21549;-74
2022/02/24 02:28:03;;;;;;;84.85;43.85;;;;;;;-0.57;75.42;101416.81;1757938;80;21465;-74
2022/02/24 02:30:31;;;;;;;79.07;40.98;;;;;;;-0.57;75.49;101421.11;1757959;81;20857;-74
2022/02/24 02:32:58;;;;;;;89.03;43.25;;;;;;;-0.61;75.67;101417.67;1757968;80;20909;-75
2022/02/24 02:35:26;;;;;;;78.67;43.23;;;;;;;-0.63;75.55;101421.96;1757917;80;21326;-77
2022/02/24 02:37:53;;;;;;;86.32;42.53;;;;;;;-0.65;75.64;101422.39;1758000;81;22130;-76
2022/02/24 02:40:20;;;;;;;66.62;36.45;;;;;;;-0.65;75.76;101421.95;1757783;80;20932;-75
2022/02/24 02:42:47;;;;;;;78.07;38.73;;;;;;;-0.61;75.82;101420.69;1757922;81;20928;-73
2022/02/24 02:45:13;;;;;;;75.32;36.73;;;;;;;-0.59;75.84;101426.26;1757788;80;20953;-75
2022/02/24 02:47:40;;;;;;;81.17;37.83;;;;;;;-0.57;75.78;101424.98;1757922;81;21417;-74
2022/02/24 02:50:07;;;;;;;70.52;36.53;;;;;;;-0.57;75.68;101422.40;1757960;81;21691;-73
2022/02/24 02:52:35;;;;;;;69.17;36.48;;;;;;;-0.56;75.61;101430.55;1757827;80;20896;-75
2022/02/24 02:55:09;;;;;;;73.85;37.48;;;;;;;-0.57;75.64;101434.84;1757889;81;20963;-79
2022/02/24 02:57:37;;;;;;;76.73;41.07;;;;;;;-0.55;75.57;101438.72;1758205;81;20928;-78
2022/02/24 03:00:07;;;;;;;86.28;39.85;;;;;;;-0.57;75.34;101443.01;1757984;81;21603;-79
2022/02/24 03:02:34;;;;;;;82.95;43.87;;;;;;;-0.60;75.13;101444.28;1757920;81;21138;-81
2022/02/24 03:05:01;;;;;;;86.95;43.78;;;;;;;-0.67;74.96;101443.02;1758109;81;20884;-79
2022/02/24 03:07:28;;;;;;;67.65;36.65;;;;;;;-0.72;74.79;101443.43;1758200;81;20873;-77
2022/02/24 03:09:55;;;;;;;70.20;39.55;;;;;;;-0.78;74.72;101448.57;1758328;81;20869;-80
2022/02/24 03:12:22;;;;;;;66.97;38.48;;;;;;;-0.84;74.69;101445.58;1758347;81;21342;-81
2022/02/24 03:14:49;;;;;;;64.50;33.30;;;;;;;-0.90;74.67;101443.44;1758056;80;21131;-79
2022/02/24 03:17:16;;;;;;;57.73;30.55;;;;;;;-0.95;74.76;101442.14;1757846;80;21462;-80
2022/02/24 03:19:43;;;;;;;57.10;33.70;;;;;;;-0.95;74.93;101452.88;1757926;81;20909;-77
2022/02/24 03:22:12;;;;;;;53.95;33.02;;;;;;;-0.95;75.09;101461.89;1757755;81;20947;-76
2022/02/24 03:24:40;;;;;;;60.67;31.95;;;;;;;-0.94;75.11;101461.02;1757846;80;20900;-74
2022/02/24 03:27:07;;;;;;;64.97;35.92;;;;;;;-0.92;75.03;101452.88;1757886;81;21482;-75
2022/02/24 03:29:34;;;;;;;45.88;28.80;;;;;;;-0.93;74.95;101464.04;1757789;80;20928;-76
2022/02/24 03:32:01;;;;;;;54.50;32.03;;;;;;;-0.95;74.97;101460.17;1757905;80;20924;-75
2022/02/24 03:34:29;;;;;;;54.40;33.53;;;;;;;-0.98;74.97;101459.30;1758009;81;20849;-76
2022/02/24 03:36:56;;;;;;;65.32;35.60;;;;;;;-1.01;75.07;101459.30;1741208;81;20932;-73
2022/02/24 03:39:23;;;;;;;72.45;39.53;;;;;;;-1.05;75.25;101420.67;1758040;81;20954;-76
2022/02/24 03:41:51;;;;;;;63.87;39.20;;;;;;;-1.05;75.40;101460.56;1757847;81;20980;-74
2022/02/24 03:44:18;;;;;;;74.53;35.75;;;;;;;-1.05;75.57;101465.71;1758385;80;20888;-75
2022/02/24 03:46:45;;;;;;;62.03;34.20;;;;;;;-1.02;75.68;101456.28;1757820;81;20940;-71
2022/02/24 03:49:12;;;;;;;62.38;34.40;;;;;;;-1.01;75.67;101460.16;1758094;81;20996;-73
2022/02/24 03:51:40;;;;;;;55.10;32.65;;;;;;;-0.97;75.69;101464.89;1758065;81;21160;-73
2022/02/24 03:54:09;;;;;;;50.12;31.48;;;;;;;-0.96;75.67;101474.31;1757993;81;20915;-74
2022/02/24 03:56:35;;;;;;;57.67;32.75;;;;;;;-0.95;75.67;101472.19;1741432;81;21029;-73
2022/02/24 03:59:02;;;;;;;60.80;33.95;;;;;;;-0.95;75.65;101474.33;1758739;81;21029;-73
2022/02/24 04:01:29;;;;;;;65.08;35.23;;;;;;;-0.93;75.57;101471.77;1756952;81;20971;-79
2022/02/24 04:03:56;;;;;;;73.17;37.48;;;;;;;-0.94;75.51;101470.87;1700173;84;21114;-77
2022/02/24 04:06:23;;;;;;;91.92;47.75;;;;;;;-0.94;75.39;101473.89;1700015;83;20937;-78
2022/02/24 04:08:50;;;;;;;71.62;38.25;;;;;;;-0.93;75.28;101475.62;1700046;83;20945;-74
2022/02/24 04:11:17;;;;;;;69.67;39.25;;;;;;;-0.95;75.18;101476.91;1700266;83;21348;-81
2022/02/24 04:13:47;;;;;;;71.50;37.25;;;;;;;-0.97;75.10;101476.47;1700399;83;21372;-81
2022/02/24 04:16:14;;;;;;;63.95;35.15;;;;;;;-0.98;75.02;101482.46;1700266;83;21952;-81
2022/02/24 04:18:41;;;;;;;63.55;32.65;;;;;;;-1.01;74.85;101484.61;1680299;84;21542;-78
2022/02/24 04:21:09;;;;;;;62.40;33.90;;;;;;;-1.06;74.74;101488.46;1700024;83;20933;-77
2022/02/24 04:23:36;;;;;;;63.02;33.38;;;;;;;-1.10;74.73;101494.45;1700017;83;20980;-77
2022/02/24 04:26:03;;;;;;;63.28;33.33;;;;;;;-1.13;74.76;101489.75;1699850;83;21040;-80
2022/02/24 04:28:32;;;;;;;53.58;30.37;;;;;;;-1.17;74.83;101507.32;1699847;83;21149;-79
2022/02/24 04:31:02;;;;;;;60.95;33.08;;;;;;;-1.20;74.88;101508.17;1699991;83;20905;-78
2022/02/24 04:33:29;;;;;;;60.10;32.73;;;;;;;-1.21;74.89;101509.45;1700284;83;21506;-80
2022/02/24 04:35:56;;;;;;;55.85;31.02;;;;;;;-1.21;75.03;101506.44;1690268;80;20887;-75
2022/02/24 04:38:23;;;;;;;55.67;31.60;;;;;;;-1.18;75.06;101513.30;1693755;84;20895;-86
2022/02/24 04:40:50;;;;;;;60.58;31.57;;;;;;;-1.15;75.09;101522.34;1659183;85;21147;-79
2022/02/24 04:43:16;;;;;;;66.77;36.03;;;;;;;-1.13;75.02;101521.48;1693659;83;21423;-78
2022/02/24 04:45:43;;;;;;;65.28;35.17;;;;;;;-1.11;74.96;101526.21;1658939;86;21017;-76
2022/02/24 04:48:12;;;;;;;56.37;32.93;;;;;;;-1.09;74.75;101527.48;1693745;83;20979;-77
2022/02/24 04:50:40;;;;;;;52.73;30.60;;;;;;;-1.10;74.61;101530.92;1658964;85;20948;-76
2022/02/24 04:53:07;;;;;;;56.88;32.73;;;;;;;-1.11;74.70;101536.50;1692320;84;21863;-77
2022/02/24 04:55:34;;;;;;;56.73;30.30;;;;;;;-1.10;74.85;101539.50;1658996;85;20948;-76
2022/02/24 04:58:03;;;;;;;58.98;32.13;;;;;;;-1.06;75.00;101548.09;1693976;83;20946;-76
2022/02/24 05:00:30;;;;;;;67.60;33.90;;;;;;;-1.02;74.92;101551.12;1659096;85;20955;-76
2022/02/24 05:02:59;;;;;;;57.62;35.20;;;;;;;-0.99;74.74;101558.84;1692803;83;20922;-76
2022/02/24 05:05:28;;;;;;;74.55;36.83;;;;;;;-0.97;74.65;101554.98;1658014;85;21669;-77
2022/02/24 05:07:55;;;;;;;73.10;36.17;;;;;;;-0.97;74.56;101558.41;1693717;83;20967;-77
2022/02/24 05:10:24;;;;;;;103.70;41.85;;;;;;;-0.95;74.47;101555.42;1659096;85;21444;-77
2022/02/24 05:12:55;;;;;;;69.00;36.28;;;;;;;-0.90;74.41;101561.87;1693679;84;20943;-76
2022/02/24 05:15:26;;;;;;;162.55;64.92;;;;;;;-0.89;74.24;101563.17;1658742;86;20947;-75
2022/02/24 05:17:53;;;;;;;146.20;69.25;;;;;;;-0.86;74.24;101563.59;1692973;84;21818;-76
2022/02/24 05:20:22;;;;;;;142.05;71.95;;;;;;;-0.82;74.23;101561.47;1659135;85;21038;-76
2022/02/24 05:22:49;;;;;;;333.50;129.40;;;;;;;-0.76;74.16;101553.73;1693671;83;21375;-77
2022/02/24 05:25:18;;;;;;;496.22;195.40;;;;;;;-0.69;74.10;101549.05;1659269;86;21074;-77
2022/02/24 05:27:45;;;;;;;178.10;78.22;;;;;;;-0.62;74.04;101552.48;1693875;84;20931;-78
2022/02/24 05:30:15;;;;;;;152.17;71.28;;;;;;;-0.55;74.00;101559.36;1659296;85;21565;-77
2022/02/24 05:32:43;;;;;;;122.10;59.35;;;;;;;-0.46;74.00;101559.80;1693937;83;20883;-77
2022/02/24 05:35:10;;;;;;;139.07;62.53;;;;;;;-0.36;73.99;101561.94;1659310;86;20933;-77
2022/02/24 05:37:38;;;;;;;130.35;63.00;;;;;;;-0.25;73.91;101562.35;1693699;83;20907;-77
2022/02/24 05:40:07;;;;;;;112.62;57.20;;;;;;;-0.03;74.07;101575.24;1664300;85;21441;-76
2022/02/24 05:42:34;;;;;;;99.77;53.55;;;;;;;0.23;73.95;101579.09;1729116;83;21128;-78
2022/02/24 05:45:01;;;;;;;90.72;48.35;;;;;;;0.49;73.52;101571.70;1728862;83;21079;-76
2022/02/24 05:47:29;;;;;;;99.77;47.00;;;;;;;0.70;73.12;101563.04;1728852;82;20894;-78
2022/02/24 05:49:59;;;;;;;115.62;54.85;;;;;;;0.91;72.48;101577.16;1729055;82;20910;-76
2022/02/24 05:52:26;;;;;;;108.27;54.70;;;;;;;1.33;72.89;101580.78;1729177;82;21518;-77
2022/02/24 05:54:53;;;;;;;99.28;57.05;;;;;;;1.94;72.24;101583.36;1728841;83;21205;-79
2022/02/24 05:57:21;;;;;;;87.92;52.50;;;;;;;2.53;70.79;101587.06;1728803;82;20888;-79
2022/02/24 05:59:47;;;;;;;107.25;54.88;;;;;;;3.12;69.01;101583.34;1729127;83;20930;-78
2022/02/24 06:02:16;;;;;;;93.03;53.58;;;;;;;3.68;67.44;101591.16;1728883;82;20930;-80
2022/02/24 06:04:43;;;;;;;83.78;49.98;;;;;;;4.25;65.64;101595.41;1729213;83;20961;-79
2022/02/24 06:07:10;;;;;;;82.65;47.93;;;;;;;4.81;63.93;101588.70;1729334;81;21107;-79
2022/02/24 06:09:37;;;;;;;75.65;47.43;;;;;;;5.36;62.39;101591.42;1728779;83;20891;-77
2022/02/24 06:12:05;;;;;;;75.78;51.30;;;;;;;5.91;60.89;101592.69;1728994;82;20969;-78
2022/02/24 06:14:32;;;;;;;66.90;45.80;;;;;;;6.48;59.42;101601.67;1724470;82;20997;-79
2022/02/24 06:17:00;;;;;;;61.23;43.20;;;;;;;6.99;57.99;101591.97;1728869;83;21356;-79
2022/02/24 06:19:26;;;;;;;65.87;43.10;;;;;;;7.51;56.70;101597.81;1729118;83;21136;-77
2022/02/24 06:21:53;;;;;;;70.28;38.98;;;;;;;8.02;55.40;101603.55;1729093;83;20978;-77
2022/02/24 06:24:20;;;;;;;58.60;38.35;;;;;;;8.48;54.12;101600.23;1728830;82;21396;-78
2022/02/24 06:26:47;;;;;;;54.15;38.78;;;;;;;8.88;53.11;101604.48;1729021;83;20950;-78
2022/02/24 06:29:14;;;;;;;57.53;42.20;;;;;;;9.33;52.14;101611.48;1729260;83;20863;-78
2022/02/24 06:31:41;;;;;;;53.85;35.28;;;;;;;9.78;51.16;101607.10;1728951;83;21147;-77
2022/02/24 06:34:09;;;;;;;48.90;36.85;;;;;;;10.21;50.08;101617.13;1728900;81;20951;-78
2022/02/24 06:36:36;;;;;;;40.33;32.58;;;;;;;10.55;49.29;101621.80;1712507;82;20867;-77
2022/02/24 06:39:03;;;;;;;40.03;31.40;;;;;;;10.85;48.51;101628.78;1691932;83;20955;-77
2022/02/24 06:41:30;;;;;;;42.33;32.10;;;;;;;11.12;47.89;101630.59;1691992;84;20910;-77
2022/02/24 06:43:57;;;;;;;39.65;31.20;;;;;;;11.45;47.55;101623.39;1692047;84;21780;-78
2022/02/24 06:46:24;;;;;;;41.70;31.37;;;;;;;11.86;46.70;101630.19;1691708;83;20974;-79
2022/02/24 06:48:50;;;;;;;35.58;28.57;;;;;;;11.93;45.97;101628.98;1691926;83;20951;-77
2022/02/24 06:51:17;;;;;;;35.20;28.67;;;;;;;11.68;45.76;101633.25;1691967;84;20919;-77
2022/02/24 06:53:48;;;;;;;38.73;29.52;;;;;;;11.20;46.02;101633.73;1691871;82;20902;-78
2022/02/24 06:56:14;;;;;;;34.15;27.58;;;;;;;10.60;46.78;101632.92;1692026;83;21107;-77
2022/02/24 06:58:42;;;;;;;34.70;26.95;;;;;;;10.01;47.77;101638.94;1691684;84;21025;-77
2022/02/24 07:01:09;;;;;;;37.25;27.17;;;;;;;9.48;48.75;101650.63;1691849;83;21026;-77
2022/02/24 07:03:38;;;;;;;32.88;26.48;;;;;;;8.98;49.76;101649.45;1691650;83;21417;-78
2022/02/24 07:06:06;;;;;;;31.07;24.75;;;;;;;8.48;50.80;101656.90;1691657;84;20986;-78
2022/02/24 07:08:33;;;;;;;35.10;26.33;;;;;;;8.10;51.85;101651.18;1691717;83;21954;-78
2022/02/24 07:11:00;;;;;;;38.23;24.23;;;;;;;7.82;52.66;101649.91;1691867;84;20895;-77
2022/02/24 07:13:29;;;;;;;34.25;23.65;;;;;;;7.59;53.06;101650.18;1691623;83;21400;-77
2022/02/24 07:15:56;;;;;;;33.23;24.85;;;;;;;7.40;53.60;101649.02;1691947;83;20971;-77
2022/02/24 07:18:23;;;;;;;31.00;21.70;;;;;;;7.25;54.11;101654.27;1691684;84;21439;-77
2022/02/24 07:20:50;;;;;;;31.27;23.42;;;;;;;7.10;54.50;101652.11;1691933;83;21075;-78
2022/02/24 07:23:17;;;;;;;29.92;20.82;;;;;;;6.94;54.84;101656.91;1691751;84;20848;-76
2022/02/24 07:25:44;;;;;;;29.98;20.23;;;;;;;6.78;55.13;101662.55;1691664;83;20975;-77
2022/02/24 07:28:10;;;;;;;23.40;18.25;;;;;;;6.68;55.60;101660.23;1691707;83;20876;-76
2022/02/24 07:30:40;;;;;;;26.68;19.57;;;;;;;6.53;56.18;101661.02;1691898;83;20938;-76
2022/02/24 07:33:08;;;;;;;26.80;19.60;;;;;;;6.36;56.70;101659.33;1691744;83;21139;-76
2022/02/24 07:35:35;;;;;;;29.45;20.17;;;;;;;6.17;57.58;101661.08;1691909;83;20955;-76
2022/02/24 07:38:02;;;;;;;26.73;20.90;;;;;;;6.02;57.99;101664.05;1720628;81;20998;-77
2022/02/24 07:40:29;;;;;;;32.53;20.23;;;;;;;5.92;58.25;101666.00;1723552;83;20904;-77
2022/02/24 07:42:58;;;;;;;30.27;19.60;;;;;;;5.86;58.71;101671.34;1723625;82;20896;-78
2022/02/24 07:45:25;;;;;;;22.17;18.20;;;;;;;5.70;59.00;101673.45;1723475;82;21057;-78
2022/02/24 07:47:54;;;;;;;26.52;18.20;;;;;;;5.51;59.56;101682.09;1723672;82;21433;-78
2022/02/24 07:50:21;;;;;;;25.43;19.48;;;;;;;5.40;59.84;101678.45;1723646;82;21011;-77
2022/02/24 07:52:50;;;;;;;25.95;19.57;;;;;;;5.33;60.06;101682.50;1723594;82;20872;-79
2022/02/24 07:55:16;;;;;;;26.80;19.32;;;;;;;5.25;60.60;101675.33;1723626;82;20837;-77
2022/02/24 07:57:43;;;;;;;25.70;20.17;;;;;;;5.15;61.10;101678.54;1723889;83;21130;-77
2022/02/24 08:00:14;;;;;;;28.80;21.52;;;;;;;5.08;61.24;101675.20;1723596;83;20892;-79
2022/02/24 08:02:43;;;;;;;26.82;20.45;;;;;;;5.07;61.96;101676.53;1723584;82;20943;-79
2022/02/24 08:05:10;;;;;;;28.25;21.33;;;;;;;5.12;62.70;101676.02;1723569;82;20912;-77
2022/02/24 08:07:40;;;;;;;31.12;22.95;;;;;;;5.42;62.51;101678.85;1723630;82;21495;-77
2022/02/24 08:10:09;;;;;;;26.20;20.10;;;;;;;6.06;61.97;101683.08;1723916;82;21556;-77
2022/02/24 08:12:42;;;;;;;29.82;20.97;;;;;;;6.98;60.70;101688.50;1723644;82;20900;-78
2022/02/24 08:15:13;;;;;;;23.98;19.75;;;;;;;8.01;58.29;101683.67;1723596;82;21453;-78
2022/02/24 08:17:40;;;;;;;27.90;19.92;;;;;;;9.08;55.72;101678.31;1723791;83;20947;-78
2022/02/24 08:20:09;;;;;;;25.48;18.05;;;;;;;10.05;53.22;101681.10;1723721;83;20864;-79
2022/02/24 08:22:38;;;;;;;24.95;20.27;;;;;;;10.83;50.53;101678.28;1723822;82;21127;-78
2022/02/24 08:25:06;;;;;;;22.73;19.40;;;;;;;11.55;48.82;101681.58;1723626;83;20947;-78
2022/02/24 08:27:37;;;;;;;19.15;16.52;;;;;;;12.26;47.39;101675.09;1723552;82;20920;-78
2022/02/24 08:30:07;;;;;;;14.50;11.75;;;;;;;12.90;44.93;101676.20;1723603;83;20963;-78
2022/02/24 08:32:34;;;;;;;13.60;11.80;;;;;;;13.40;42.12;101688.92;1723945;82;20905;-78
2022/02/24 08:35:01;;;;;;;18.05;11.73;;;;;;;13.76;41.44;101676.83;1723523;82;21186;-79
2022/02/24 08:37:28;;;;;;;14.55;10.38;;;;;;;14.04;39.38;101673.44;1723729;82;20892;-78
2022/02/24 08:39:56;;;;;;;12.15;9.73;;;;;;;14.33;38.60;101674.85;1723526;82;20967;-78
2022/02/24 08:42:28;;;;;;;11.90;9.43;;;;;;;14.65;37.55;101680.03;1723801;83;20947;-78
2022/02/24 08:44:55;;;;;;;10.00;9.00;;;;;;;14.81;37.39;101678.66;1723661;83;21464;-77
2022/02/24 08:47:22;;;;;;;10.40;8.70;;;;;;;15.03;35.99;101683.45;1723885;83;21499;-80
2022/02/24 08:49:51;;;;;;;9.53;8.58;;;;;;;14.90;34.99;101678.94;1723445;83;20952;-78
2022/02/24 08:52:18;;;;;;;9.28;8.33;;;;;;;14.66;35.69;101682.59;1723807;83;20923;-79
2022/02/24 08:54:46;;;;;;;8.43;7.47;;;;;;;14.88;35.76;101686.58;1723545;82;20975;-78
2022/02/24 08:57:13;;;;;;;8.33;7.08;;;;;;;15.24;34.30;101683.45;1724199;83;21373;-78
2022/02/24 08:59:40;;;;;;;7.50;6.10;;;;;;;15.35;33.62;101681.45;1723614;82;21222;-78
2022/02/24 09:02:08;;;;;;;10.13;6.87;;;;;;;15.25;33.39;101678.55;1723411;83;20884;-77
2022/02/24 09:04:34;;;;;;;6.72;6.03;;;;;;;15.23;33.87;101676.92;1723671;83;20940;-79
2022/02/24 09:07:04;;;;;;;7.60;5.75;;;;;;;15.46;33.08;101676.33;1723798;83;20983;-79
2022/02/24 09:09:31;;;;;;;6.62;6.03;;;;;;;15.62;32.74;101674.88;1723656;82;20911;-78
2022/02/24 09:11:59;;;;;;;7.12;5.15;;;;;;;15.58;31.49;101680.45;1723877;82;21013;-77
2022/02/24 09:14:26;;;;;;;6.05;5.45;;;;;;;15.18;32.10;101678.53;1723495;83;20975;-75
2022/02/24 09:18:24;;;;;;;6.55;5.50;;;;;;;14.68;33.07;101678.06;1854433;77;22556;-78
2022/02/24 09:20:50;;;;;;;5.85;4.95;;;;;;;14.27;33.44;101677.40;1822220;78;20962;-79
2022/02/24 09:23:18;;;;;;;6.97;5.20;;;;;;;13.91;34.04;101673.77;1822275;78;21132;-78
2022/02/24 09:25:46;;;;;;;7.40;4.92;;;;;;;13.71;34.30;101676.69;1821969;78;20895;-77
2022/02/24 09:28:14;;;;;;;7.55;5.55;;;;;;;13.65;34.37;101675.23;1822029;78;20864;-77
2022/02/24 09:30:41;;;;;;;6.10;5.60;;;;;;;13.71;34.65;101678.00;1822010;78;20864;-78
2022/02/24 09:33:08;;;;;;;7.75;6.08;;;;;;;13.85;34.19;101671.03;1822176;78;20868;-79
2022/02/24 09:35:35;;;;;;;6.37;5.65;;;;;;;14.00;34.07;101671.91;1822122;78;21776;-77
2022/02/24 09:38:02;;;;;;;8.08;5.42;;;;;;;14.13;33.99;101676.02;1822133;78;20903;-77
2022/02/24 09:40:32;;;;;;;9.60;4.92;;;;;;;14.19;33.97;101673.52;1822023;78;21381;-77
2022/02/24 09:43:00;;;;;;;6.20;4.85;;;;;;;14.26;33.93;101668.25;1822276;78;20927;-79
2022/02/24 09:45:27;;;;;;;6.33;4.60;;;;;;;14.31;33.62;101670.98;1816501;78;20828;-78
2022/02/24 09:47:54;;;;;;;5.60;5.10;;;;;;;14.31;33.55;101667.50;1822572;78;21104;-78
2022/02/24 09:50:23;;;;;;;7.00;5.40;;;;;;;14.28;33.25;101673.81;1822108;78;21025;-78
2022/02/24 09:52:50;;;;;;;6.33;5.03;;;;;;;14.30;33.45;101673.73;1821980;78;20950;-80
2022/02/24 09:55:17;;;;;;;7.80;4.83;;;;;;;14.59;33.25;101673.83;1790769;78;20891;-79
2022/02/24 09:57:44;;;;;;;7.35;4.75;;;;;;;14.98;32.88;101676.29;1822574;78;20895;-79
2022/02/24 10:00:13;;;;;;;8.33;5.28;;;;;;;15.27;32.58;101674.47;1822027;78;21963;-80
2022/02/24 10:02:40;;;;;;;8.73;5.20;;;;;;;15.62;31.86;101666.94;1822287;78;20962;-78
2022/02/24 10:05:13;;;;;;;4.92;4.45;;;;;;;15.98;31.59;101656.73;1822398;78;20872;-77
2022/02/24 10:07:40;;;;;;;6.75;4.62;;;;;;;16.33;31.05;101663.64;1822229;78;21006;-77
2022/02/24 10:10:34;;;;;;;5.20;4.55;;;;;;;16.61;29.72;101663.08;1822022;78;21388;-78
2022/02/24 10:13:09;;;;;;;6.30;5.15;;;;;;;16.56;29.70;101658.09;1821143;78;22173;-79
2022/02/24 10:15:44;;;;;;;9.40;4.92;;;;;;;16.30;30.19;101661.22;1821957;78;20879;-78
2022/02/24 10:18:16;;;;;;;5.97;4.50;;;;;;;16.05;30.34;101661.53;1821980;78;20982;-80
2022/02/24 10:20:53;;;;;;;10.80;4.65;;;;;;;15.97;30.21;101659.86;1821948;78;20946;-78
2022/02/24 10:23:21;;;;;;;8.28;4.53;;;;;;;16.06;30.18;101659.25;1822107;78;20888;-80
2022/02/24 10:25:50;;;;;;;11.45;4.97;;;;;;;16.16;29.94;101655.05;1821997;78;21100;-78
2022/02/24 10:28:38;;;;;;;6.47;4.12;;;;;;;16.37;29.78;101664.66;1821946;78;20895;-78
2022/02/24 10:31:25;;;;;;;7.85;4.60;;;;;;;16.63;29.83;101651.45;1815443;78;21056;-79
2022/02/24 10:34:10;;;;;;;7.60;4.47;;;;;;;16.97;29.29;101645.14;1821330;78;20930;-79
2022/02/24 10:36:39;;;;;;;5.25;3.92;;;;;;;17.22;29.00;101647.37;1821671;78;21341;-78
2022/02/24 10:39:21;;;;;;;4.20;3.80;;;;;;;17.33;28.41;101650.09;1821670;78;21130;-78
2022/02/24 10:41:50;;;;;;;6.30;4.15;;;;;;;17.38;28.15;101641.32;1821263;78;20931;-79
2022/02/24 10:44:23;;;;;;;3.87;2.98;;;;;;;17.19;27.79;101634.70;1821381;78;20879;-79
2022/02/24 10:47:07;;;;;;;3.67;3.37;;;;;;;17.12;28.50;101645.83;1821307;78;20871;-78
2022/02/24 10:49:39;;;;;;;5.67;3.67;;;;;;;16.85;28.75;101636.72;1821394;78;20931;-79
2022/02/24 10:52:21;;;;;;;4.30;3.80;;;;;;;16.80;28.64;101635.72;1821650;78;21783;-78
2022/02/24 10:55:06;;;;;;;5.58;3.42;;;;;;;16.91;28.34;101626.53;1821270;78;20848;-80
2022/02/24 10:57:35;;;;;;;4.60;3.30;;;;;;;16.85;28.82;101632.29;1821437;78;21402;-77
2022/02/24 11:00:02;;;;;;;5.80;4.40;;;;;;;17.06;28.72;101627.75;1821590;78;20900;-78
2022/02/24 11:02:29;;;;;;;3.87;3.50;;;;;;;17.24;27.98;101625.58;1821402;78;20926;-78
2022/02/24 11:04:56;;;;;;;5.20;4.15;;;;;;;17.09;27.81;101623.05;1821760;78;21509;-80
2022/02/24 11:07:23;;;;;;;5.00;4.08;;;;;;;16.93;28.18;101630.41;1821283;78;21472;-79
2022/02/24 11:09:51;;;;;;;4.67;3.85;;;;;;;16.70;28.83;101628.87;1821444;78;20888;-79
2022/02/24 11:12:19;;;;;;;5.50;4.45;;;;;;;16.50;28.77;101626.77;1821671;78;20884;-80
2022/02/24 11:14:47;;;;;;;4.85;4.35;;;;;;;16.30;29.32;101636.91;1816503;78;20856;-80
2022/02/24 11:17:15;;;;;;;4.45;4.05;;;;;;;16.27;29.09;101635.77;1821267;78;21993;-80
2022/02/24 11:19:45;;;;;;;6.65;4.22;;;;;;;16.11;29.49;101638.61;1821274;78;21574;-80